CYYT

St. John's International Airport

Code ICAO CYYT
Code IATA YYT
Nom St. John's International Airport
Emplacement St. John's, Newfoundland-and-Labrador, CA
Élévation 461 pieds / 140.5 mètres
Latitude 47.61859894
Longitude -52.75189972
METAR CYYT 211016Z 29017G22KT 1 1/2SM R29/3500VP6000FT/U R16/2600VP6000FT/N BR VV002 12/12 A2969 RMK FG8 SLP058 DENSITY ALT 500FT
Informations extras Afficher cartes et CFS
Afficher NOTAMS
Piste Longueur Largeur Surface Élévation
02 5028 ft 100 ft ASP 445 ft
11 8502 ft 200 ft ASP 458 ft
16 7005 ft 200 ft ASP 444 ft
20 5028 ft 100 ft ASP 440 ft
29 8502 ft 200 ft ASP 437 ft
34 7005 ft 200 ft ASP 431 ft